sensor_id;sensor_type;location;lat;lon;timestamp;pressure;altitude;pressure_sealevel;temperature;humidity
54236;BME280;40151;43.606;1.472;2023-03-17T00:00:13;98685.53;;;17.29;51.76
54236;BME280;40151;43.606;1.472;2023-03-17T00:02:39;98691.69;;;17.30;51.57
54236;BME280;40151;43.606;1.472;2023-03-17T00:05:29;98702.22;;;17.30;51.84
54236;BME280;40151;43.606;1.472;2023-03-17T00:07:59;98692.72;;;17.27;51.91
54236;BME280;40151;43.606;1.472;2023-03-17T00:10:26;98696.28;;;17.26;51.72
54236;BME280;40151;43.606;1.472;2023-03-17T00:12:53;98695.44;;;17.26;51.92
54236;BME280;40151;43.606;1.472;2023-03-17T00:15:20;98693.53;;;17.28;51.61
54236;BME280;40151;43.606;1.472;2023-03-17T00:17:47;98689.28;;;17.25;51.93
54236;BME280;40151;43.606;1.472;2023-03-17T00:20:30;98692.88;;;17.24;52.17
54236;BME280;40151;43.606;1.472;2023-03-17T00:22:59;98690.22;;;17.24;51.67
54236;BME280;40151;43.606;1.472;2023-03-17T00:25:30;98693.72;;;17.25;51.71
54236;BME280;40151;43.606;1.472;2023-03-17T00:27:57;98698.34;;;17.21;51.87
54236;BME280;40151;43.606;1.472;2023-03-17T00:30:24;98720.25;;;17.22;52.23
54236;BME280;40151;43.606;1.472;2023-03-17T00:32:53;98693.06;;;17.21;52.36
54236;BME280;40151;43.606;1.472;2023-03-17T00:35:26;98692.97;;;17.23;52.07
54236;BME280;40151;43.606;1.472;2023-03-17T00:37:53;98680.63;;;17.23;51.88
54236;BME280;40151;43.606;1.472;2023-03-17T00:40:27;98688.47;;;17.25;52.32
54236;BME280;40151;43.606;1.472;2023-03-17T00:42:56;98695.78;;;17.20;52.24
54236;BME280;40151;43.606;1.472;2023-03-17T00:45:23;98679.97;;;17.20;52.29
54236;BME280;40151;43.606;1.472;2023-03-17T00:47:50;98692.19;;;17.21;52.04
54236;BME280;40151;43.606;1.472;2023-03-17T00:50:19;98673.66;;;17.22;52.24
54236;BME280;40151;43.606;1.472;2023-03-17T00:52:49;98674.69;;;17.20;52.58
54236;BME280;40151;43.606;1.472;2023-03-17T00:55:16;98669.41;;;17.20;52.24
54236;BME280;40151;43.606;1.472;2023-03-17T00:57:42;98669.41;;;17.20;52.33
54236;BME280;40151;43.606;1.472;2023-03-17T01:00:26;98659.81;;;17.18;52.18
54236;BME280;40151;43.606;1.472;2023-03-17T01:02:53;98651.91;;;17.18;52.18
54236;BME280;40151;43.606;1.472;2023-03-17T01:05:20;98678.28;;;17.18;52.67
54236;BME280;40151;43.606;1.472;2023-03-17T01:07:47;98674.69;;;17.20;52.29
54236;BME280;40151;43.606;1.472;2023-03-17T01:10:21;98675.72;;;17.17;52.46
54236;BME280;40151;43.606;1.472;2023-03-17T01:12:48;98680.13;;;17.16;52.35
54236;BME280;40151;43.606;1.472;2023-03-17T01:15:15;98680.13;;;17.16;52.50
54236;BME280;40151;43.606;1.472;2023-03-17T01:17:41;98687.94;;;17.18;52.40
54236;BME280;40151;43.606;1.472;2023-03-17T01:20:13;98656.31;;;17.18;52.66
54236;BME280;40151;43.606;1.472;2023-03-17T01:22:41;98670.44;;;17.17;52.47
54236;BME280;40151;43.606;1.472;2023-03-17T01:25:07;98675.78;;;17.15;52.67
54236;BME280;40151;43.606;1.472;2023-03-17T01:27:33;98675.78;;;17.15;52.79
54236;BME280;40151;43.606;1.472;2023-03-17T01:29:59;98688.13;;;17.15;52.79
54236;BME280;40151;43.606;1.472;2023-03-17T01:32:25;98675.97;;;17.12;52.55
54236;BME280;40151;43.606;1.472;2023-03-17T01:34:51;98671.47;;;17.14;52.66
54236;BME280;40151;43.606;1.472;2023-03-17T01:37:16;98668.91;;;17.13;52.66
54236;BME280;40151;43.606;1.472;2023-03-17T01:39:41;98669.78;;;17.13;52.60
54236;BME280;40151;43.606;1.472;2023-03-17T01:42:07;98658.28;;;17.14;52.79
54236;BME280;40151;43.606;1.472;2023-03-17T01:44:32;98659.16;;;17.15;52.60
54236;BME280;40151;43.606;1.472;2023-03-17T01:46:58;98661.00;;;17.13;53.02
54236;BME280;40151;43.606;1.472;2023-03-17T01:49:29;98658.47;;;17.11;52.96
54236;BME280;40151;43.606;1.472;2023-03-17T01:52:15;98662.81;;;17.12;53.06
54236;BME280;40151;43.606;1.472;2023-03-17T01:54:46;98671.47;;;17.14;52.69
54236;BME280;40151;43.606;1.472;2023-03-17T01:57:19;98653.94;;;17.13;53.00
54236;BME280;40151;43.606;1.472;2023-03-17T01:59:50;98657.53;;;17.12;53.11
54236;BME280;40151;43.606;1.472;2023-03-17T02:02:21;98657.34;;;17.15;52.74
54236;BME280;40151;43.606;1.472;2023-03-17T02:04:50;98656.50;;;17.15;52.86
54236;BME280;40151;43.606;1.472;2023-03-17T02:07:18;98661.09;;;17.11;52.99
54236;BME280;40151;43.606;1.472;2023-03-17T02:09:45;98649.88;;;17.08;52.90
54236;BME280;40151;43.606;1.472;2023-03-17T02:12:11;98657.53;;;17.12;52.87
54236;BME280;40151;43.606;1.472;2023-03-17T02:14:38;98654.13;;;17.10;52.94
54236;BME280;40151;43.606;1.472;2023-03-17T02:17:04;98645.09;;;17.14;52.87
54236;BME280;40151;43.606;1.472;2023-03-17T02:19:29;98642.66;;;17.11;53.15
54236;BME280;40151;43.606;1.472;2023-03-17T02:21:56;98645.09;;;17.14;52.98
54236;BME280;40151;43.606;1.472;2023-03-17T02:24:41;98640.03;;;17.11;53.06
54236;BME280;40151;43.606;1.472;2023-03-17T02:27:21;98653.19;;;17.11;53.15
54236;BME280;40151;43.606;1.472;2023-03-17T02:29:48;98624.22;;;17.11;53.06
54236;BME280;40151;43.606;1.472;2023-03-17T02:32:17;98636.59;;;17.09;53.30
54236;BME280;40151;43.606;1.472;2023-03-17T02:34:47;98638.28;;;17.10;52.83
54236;BME280;40151;43.606;1.472;2023-03-17T02:37:13;98637.47;;;17.10;53.18
54236;BME280;40151;43.606;1.472;2023-03-17T02:39:39;98647.06;;;17.11;53.25
54236;BME280;40151;43.606;1.472;2023-03-17T02:42:05;98645.28;;;17.11;52.89
54236;BME280;40151;43.606;1.472;2023-03-17T02:44:31;98651.41;;;17.12;52.87
54236;BME280;40151;43.606;1.472;2023-03-17T02:46:57;98643.41;;;17.13;53.09
54236;BME280;40151;43.606;1.472;2023-03-17T02:49:23;98643.56;;;17.10;53.20
54236;BME280;40151;43.606;1.472;2023-03-17T02:51:50;98641.72;;;17.12;52.84
54236;BME280;40151;43.606;1.472;2023-03-17T02:54:16;98656.75;;;17.10;53.31
54236;BME280;40151;43.606;1.472;2023-03-17T02:56:41;98631.16;;;17.12;53.01
54236;BME280;40151;43.606;1.472;2023-03-17T02:59:07;98641.88;;;17.09;52.96
54236;BME280;40151;43.606;1.472;2023-03-17T03:01:33;98637.38;;;17.11;52.89
54236;BME280;40151;43.606;1.472;2023-03-17T03:03:59;98619.84;;;17.10;53.06
54236;BME280;40151;43.606;1.472;2023-03-17T03:06:24;98621.66;;;17.10;53.20
54236;BME280;40151;43.606;1.472;2023-03-17T03:08:50;98634.91;;;17.08;53.18
54236;BME280;40151;43.606;1.472;2023-03-17T03:11:15;98624.38;;;17.08;53.24
54236;BME280;40151;43.606;1.472;2023-03-17T03:13:41;98624.38;;;17.08;53.03
54236;BME280;40151;43.606;1.472;2023-03-17T03:16:07;98609.50;;;17.07;53.06
54236;BME280;40151;43.606;1.472;2023-03-17T03:18:33;98610.44;;;17.06;53.24
54236;BME280;40151;43.606;1.472;2023-03-17T03:20:58;98604.22;;;17.07;53.11
54236;BME280;40151;43.606;1.472;2023-03-17T03:23:24;98611.28;;;17.07;53.04
54236;BME280;40151;43.606;1.472;2023-03-17T03:25:49;98589.25;;;17.08;53.15
54236;BME280;40151;43.606;1.472;2023-03-17T03:28:15;98599.69;;;17.09;52.76
54236;BME280;40151;43.606;1.472;2023-03-17T03:30:41;98597.16;;;17.08;53.05
54236;BME280;40151;43.606;1.472;2023-03-17T03:33:09;98583.06;;;17.09;53.04
54236;BME280;40151;43.606;1.472;2023-03-17T03:35:35;98605.16;;;17.06;52.95
54236;BME280;40151;43.606;1.472;2023-03-17T03:38:00;98593.00;;;17.03;53.08
54236;BME280;40151;43.606;1.472;2023-03-17T03:40:26;98613.16;;;17.04;53.10
54236;BME280;40151;43.606;1.472;2023-03-17T03:42:51;98610.59;;;17.03;52.98
54236;BME280;40151;43.606;1.472;2023-03-17T03:45:17;98608.75;;;17.05;53.10
54236;BME280;40151;43.606;1.472;2023-03-17T03:47:43;98611.38;;;17.05;52.82
54236;BME280;40151;43.606;1.472;2023-03-17T03:50:09;98603.47;;;17.05;52.97
54236;BME280;40151;43.606;1.472;2023-03-17T03:52:35;98629.84;;;17.05;53.01
54236;BME280;40151;43.606;1.472;2023-03-17T03:55:01;98635.00;;;17.07;52.76
54236;BME280;40151;43.606;1.472;2023-03-17T03:57:26;98622.84;;;17.04;53.19
54236;BME280;40151;43.606;1.472;2023-03-17T03:59:52;98640.19;;;17.08;53.23
54236;BME280;40151;43.606;1.472;2023-03-17T04:02:18;98642.91;;;17.07;53.07
54236;BME280;40151;43.606;1.472;2023-03-17T04:04:43;98641.22;;;17.06;53.07
54236;BME280;40151;43.606;1.472;2023-03-17T04:07:09;98633.38;;;17.04;53.12
54236;BME280;40151;43.606;1.472;2023-03-17T04:09:35;98632.56;;;17.03;52.95
54236;BME280;40151;43.606;1.472;2023-03-17T04:12:01;98644.72;;;17.06;52.91
54236;BME280;40151;43.606;1.472;2023-03-17T04:14:27;98633.31;;;17.06;53.03
54236;BME280;40151;43.606;1.472;2023-03-17T04:16:53;98641.22;;;17.06;53.07
54236;BME280;40151;43.606;1.472;2023-03-17T04:19:18;98645.66;;;17.05;53.00
54236;BME280;40151;43.606;1.472;2023-03-17T04:21:45;98638.56;;;17.06;52.96
54236;BME280;40151;43.606;1.472;2023-03-17T04:24:11;98629.84;;;17.05;52.87
54236;BME280;40151;43.606;1.472;2023-03-17T04:26:37;98638.66;;;17.04;53.08
54236;BME280;40151;43.606;1.472;2023-03-17T04:29:03;98644.88;;;17.03;52.90
54236;BME280;40151;43.606;1.472;2023-03-17T04:31:28;98647.34;;;17.06;53.04
54236;BME280;40151;43.606;1.472;2023-03-17T04:33:54;98653.63;;;17.03;53.09
54236;BME280;40151;43.606;1.472;2023-03-17T04:36:21;98664.09;;;17.05;52.89
54236;BME280;40151;43.606;1.472;2023-03-17T04:38:48;98659.75;;;17.04;53.26
54236;BME280;40151;43.606;1.472;2023-03-17T04:41:13;98649.19;;;17.04;53.14
54236;BME280;40151;43.606;1.472;2023-03-17T04:43:39;98652.78;;;17.03;53.17
54236;BME280;40151;43.606;1.472;2023-03-17T04:46:06;98647.50;;;17.03;53.09
54236;BME280;40151;43.606;1.472;2023-03-17T04:48:32;98661.69;;;17.00;52.87
54236;BME280;40151;43.606;1.472;2023-03-17T04:50:57;98657.34;;;16.99;53.30
54236;BME280;40151;43.606;1.472;2023-03-17T04:53:22;98649.34;;;17.01;53.14
54236;BME280;40151;43.606;1.472;2023-03-17T04:55:48;98665.94;;;17.03;52.95
54236;BME280;40151;43.606;1.472;2023-03-17T04:58:13;98675.56;;;17.04;52.98
54236;BME280;40151;43.606;1.472;2023-03-17T05:00:39;98663.47;;;17.00;53.28
54236;BME280;40151;43.606;1.472;2023-03-17T05:03:05;98674.03;;;17.00;53.39
54236;BME280;40151;43.606;1.472;2023-03-17T05:05:33;98682.69;;;17.02;53.40
54236;BME280;40151;43.606;1.472;2023-03-17T05:07:59;98684.56;;;17.00;53.18
54236;BME280;40151;43.606;1.472;2023-03-17T05:10:24;98665.16;;;17.01;53.23
54236;BME280;40151;43.606;1.472;2023-03-17T05:12:50;98676.81;;;16.97;53.20
54236;BME280;40151;43.606;1.472;2023-03-17T05:15:16;98684.56;;;17.00;53.22
54236;BME280;40151;43.606;1.472;2023-03-17T05:17:41;98675.88;;;16.98;53.29
54236;BME280;40151;43.606;1.472;2023-03-17T05:20:08;98675.56;;;17.04;53.12
54236;BME280;40151;43.606;1.472;2023-03-17T05:22:33;98658.22;;;17.00;53.23
54236;BME280;40151;43.606;1.472;2023-03-17T05:24:59;98662.63;;;16.99;53.01
54236;BME280;40151;43.606;1.472;2023-03-17T05:27:24;98652.06;;;16.99;53.42
54236;BME280;40151;43.606;1.472;2023-03-17T05:29:50;98647.66;;;17.00;53.08
54236;BME280;40151;43.606;1.472;2023-03-17T05:32:16;98649.44;;;16.99;52.97
54236;BME280;40151;43.606;1.472;2023-03-17T05:34:41;98639.59;;;17.03;53.01
54236;BME280;40151;43.606;1.472;2023-03-17T05:37:07;98638.81;;;17.01;53.13
54236;BME280;40151;43.606;1.472;2023-03-17T05:39:32;98637.94;;;17.00;53.39
54236;BME280;40151;43.606;1.472;2023-03-17T05:41:58;98646.88;;;16.98;53.35
54236;BME280;40151;43.606;1.472;2023-03-17T05:44:23;98649.53;;;16.98;53.16
54236;BME280;40151;43.606;1.472;2023-03-17T05:46:49;98638.03;;;16.99;53.67
54236;BME280;40151;43.606;1.472;2023-03-17T05:49:14;98659.91;;;17.01;53.30
54236;BME280;40151;43.606;1.472;2023-03-17T05:51:40;98668.75;;;17.00;53.43
54236;BME280;40151;43.606;1.472;2023-03-17T05:54:06;98677.56;;;16.99;53.81
54236;BME280;40151;43.606;1.472;2023-03-17T05:56:33;98674.78;;;17.02;53.88
54236;BME280;40151;43.606;1.472;2023-03-17T05:58:59;98671.47;;;16.98;55.20
54236;BME280;40151;43.606;1.472;2023-03-17T06:01:26;98649.34;;;17.01;54.85
54236;BME280;40151;43.606;1.472;2023-03-17T06:03:52;98667.75;;;17.02;55.01
54236;BME280;40151;43.606;1.472;2023-03-17T06:06:18;98655.34;;;17.04;55.11
54236;BME280;40151;43.606;1.472;2023-03-17T06:08:44;98666.63;;;17.07;55.36
54236;BME280;40151;43.606;1.472;2023-03-17T06:11:10;98678.19;;;17.04;54.99
54236;BME280;40151;43.606;1.472;2023-03-17T06:13:35;98672.00;;;17.05;54.77
54236;BME280;40151;43.606;1.472;2023-03-17T06:16:01;98664.84;;;17.07;54.74
54236;BME280;40151;43.606;1.472;2023-03-17T06:18:27;98675.56;;;17.04;54.74
54236;BME280;40151;43.606;1.472;2023-03-17T06:20:53;98665.69;;;17.08;54.39
54236;BME280;40151;43.606;1.472;2023-03-17T06:23:18;98667.50;;;17.07;54.32
54236;BME280;40151;43.606;1.472;2023-03-17T06:25:45;98668.44;;;17.06;54.23
54236;BME280;40151;43.606;1.472;2023-03-17T06:28:11;98659.56;;;17.07;54.14
54236;BME280;40151;43.606;1.472;2023-03-17T06:30:37;98662.13;;;17.09;54.15
54236;BME280;40151;43.606;1.472;2023-03-17T06:33:03;98658.47;;;17.11;53.53
54236;BME280;40151;43.606;1.472;2023-03-17T06:35:30;98655.84;;;17.11;53.64
54236;BME280;40151;43.606;1.472;2023-03-17T06:37:56;98652.41;;;17.09;53.58
54236;BME280;40151;43.606;1.472;2023-03-17T06:40:22;98667.22;;;17.12;53.52
54236;BME280;40151;43.606;1.472;2023-03-17T06:42:48;98671.75;;;17.10;53.53
54236;BME280;40151;43.606;1.472;2023-03-17T06:45:13;98675.19;;;17.10;53.87
54236;BME280;40151;43.606;1.472;2023-03-17T06:47:39;98667.22;;;17.12;53.43
54236;BME280;40151;43.606;1.472;2023-03-17T06:50:06;98672.69;;;17.09;53.48
54236;BME280;40151;43.606;1.472;2023-03-17T06:52:34;98684.06;;;17.09;53.29
54236;BME280;40151;43.606;1.472;2023-03-17T06:55:00;98673.50;;;17.09;53.61
54236;BME280;40151;43.606;1.472;2023-03-17T06:57:26;98670.78;;;17.11;53.29
54236;BME280;40151;43.606;1.472;2023-03-17T06:59:51;98675.19;;;17.10;53.54
54236;BME280;40151;43.606;1.472;2023-03-17T07:02:16;98673.44;;;17.11;53.48
54236;BME280;40151;43.606;1.472;2023-03-17T07:04:42;98693.75;;;17.09;53.27
54236;BME280;40151;43.606;1.472;2023-03-17T07:07:07;98677.94;;;17.09;53.31
54236;BME280;40151;43.606;1.472;2023-03-17T07:09:33;98678.78;;;17.09;53.40
54236;BME280;40151;43.606;1.472;2023-03-17T07:12:00;98679.81;;;17.07;53.41
54236;BME280;40151;43.606;1.472;2023-03-17T07:14:33;98675.19;;;17.10;53.15
54236;BME280;40151;43.606;1.472;2023-03-17T07:17:00;98683.22;;;17.09;53.15
54236;BME280;40151;43.606;1.472;2023-03-17T07:19:26;98691.03;;;17.10;53.26
54236;BME280;40151;43.606;1.472;2023-03-17T07:21:53;98694.59;;;17.09;53.26
54236;BME280;40151;43.606;1.472;2023-03-17T07:24:20;98705.94;;;17.11;53.31
54236;BME280;40151;43.606;1.472;2023-03-17T07:26:46;98712.88;;;17.12;52.87
54236;BME280;40151;43.606;1.472;2023-03-17T07:29:11;98720.00;;;17.10;53.14
54236;BME280;40151;43.606;1.472;2023-03-17T07:31:38;98731.34;;;17.12;53.08
54236;BME280;40151;43.606;1.472;2023-03-17T07:34:04;98739.25;;;17.12;53.19
54236;BME280;40151;43.606;1.472;2023-03-17T07:36:31;98736.63;;;17.12;53.26
54236;BME280;40151;43.606;1.472;2023-03-17T07:38:56;98741.97;;;17.11;53.06
54236;BME280;40151;43.606;1.472;2023-03-17T07:41:22;98740.19;;;17.11;53.20
54236;BME280;40151;43.606;1.472;2023-03-17T07:43:47;98728.88;;;17.09;52.91
54236;BME280;40151;43.606;1.472;2023-03-17T07:46:13;98735.84;;;17.10;53.02
54236;BME280;40151;43.606;1.472;2023-03-17T07:48:41;98730.47;;;17.12;52.93
54236;BME280;40151;43.606;1.472;2023-03-17T07:51:12;98760.25;;;17.14;52.77
54236;BME280;40151;43.606;1.472;2023-03-17T07:53:38;98755.00;;;17.14;52.62
54236;BME280;40151;43.606;1.472;2023-03-17T07:56:04;98732.97;;;17.15;52.89
54236;BME280;40151;43.606;1.472;2023-03-17T07:58:29;98762.03;;;17.13;53.04
54236;BME280;40151;43.606;1.472;2023-03-17T08:00:55;98770.81;;;17.14;52.62
54236;BME280;40151;43.606;1.472;2023-03-17T08:03:22;98764.81;;;17.10;52.71
54236;BME280;40151;43.606;1.472;2023-03-17T08:05:54;98759.41;;;17.13;52.92
54236;BME280;40151;43.606;1.472;2023-03-17T08:08:24;98764.00;;;17.10;52.96
54236;BME280;40151;43.606;1.472;2023-03-17T08:10:50;98774.53;;;17.10;52.74
54236;BME280;40151;43.606;1.472;2023-03-17T08:13:16;98771.03;;;17.09;52.75
54236;BME280;40151;43.606;1.472;2023-03-17T08:15:41;98775.38;;;17.10;52.61
54236;BME280;40151;43.606;1.472;2023-03-17T08:18:07;98785.09;;;17.10;52.92
54236;BME280;40151;43.606;1.472;2023-03-17T08:20:33;98794.63;;;17.12;52.77
54236;BME280;40151;43.606;1.472;2023-03-17T08:22:59;98796.31;;;17.13;52.92
54236;BME280;40151;43.606;1.472;2023-03-17T08:25:25;98800.81;;;17.11;52.66
54236;BME280;40151;43.606;1.472;2023-03-17T08:27:51;98808.72;;;17.11;52.75
54236;BME280;40151;43.606;1.472;2023-03-17T08:30:17;98815.69;;;17.12;52.94
54236;BME280;40151;43.606;1.472;2023-03-17T08:32:42;98822.66;;;17.13;52.65
54236;BME280;40151;43.606;1.472;2023-03-17T08:35:15;98825.47;;;17.10;52.74
54236;BME280;40151;43.606;1.472;2023-03-17T08:37:42;98826.25;;;17.12;52.51
54236;BME280;40151;43.606;1.472;2023-03-17T08:40:12;98832.34;;;17.13;52.99
54236;BME280;40151;43.606;1.472;2023-03-17T08:42:41;98845.44;;;17.14;52.65
54236;BME280;40151;43.606;1.472;2023-03-17T08:45:07;98845.44;;;17.14;52.71
54236;BME280;40151;43.606;1.472;2023-03-17T08:47:35;98848.00;;;17.16;52.57
54236;BME280;40151;43.606;1.472;2023-03-17T08:50:01;98849.78;;;17.15;52.79
54236;BME280;40151;43.606;1.472;2023-03-17T08:52:27;98857.69;;;17.15;52.61
54236;BME280;40151;43.606;1.472;2023-03-17T08:54:53;98849.78;;;17.15;52.54
54236;BME280;40151;43.606;1.472;2023-03-17T08:57:19;98846.31;;;17.15;52.93
54236;BME280;40151;43.606;1.472;2023-03-17T08:59:45;98857.63;;;17.17;52.83
54236;BME280;40151;43.606;1.472;2023-03-17T09:02:12;98852.28;;;17.18;52.69
54236;BME280;40151;43.606;1.472;2023-03-17T09:04:39;98841.88;;;17.15;52.86
54236;BME280;40151;43.606;1.472;2023-03-17T09:07:05;98835.66;;;17.16;52.67
54236;BME280;40151;43.606;1.472;2023-03-17T09:09:32;98836.59;;;17.15;52.42
54236;BME280;40151;43.606;1.472;2023-03-17T09:11:59;98840.88;;;17.18;52.50
54236;BME280;40151;43.606;1.472;2023-03-17T09:14:25;98834.75;;;17.17;52.90
54236;BME280;40151;43.606;1.472;2023-03-17T09:16:51;98847.00;;;17.18;52.60
54236;BME280;40151;43.606;1.472;2023-03-17T09:19:17;98841.72;;;17.18;52.60
54236;BME280;40151;43.606;1.472;2023-03-17T09:21:43;98859.25;;;17.20;52.99
54236;BME280;40151;43.606;1.472;2023-03-17T09:24:09;98854.13;;;17.16;52.70
54236;BME280;40151;43.606;1.472;2023-03-17T09:26:35;98860.94;;;17.21;52.68
54236;BME280;40151;43.606;1.472;2023-03-17T09:29:01;98854.03;;;17.18;52.54
54236;BME280;40151;43.606;1.472;2023-03-17T09:31:27;98857.53;;;17.18;52.76
54236;BME280;40151;43.606;1.472;2023-03-17T09:33:53;98854.91;;;17.18;52.72
54236;BME280;40151;43.606;1.472;2023-03-17T09:36:19;98832.72;;;17.23;52.59
54236;BME280;40151;43.606;1.472;2023-03-17T09:38:45;98845.13;;;17.21;52.88
54236;BME280;40151;43.606;1.472;2023-03-17T09:41:24;98855.66;;;17.21;52.55
54236;BME280;40151;43.606;1.472;2023-03-17T09:49:20;98857.34;;;17.22;52.67
54236;BME280;40151;43.606;1.472;2023-03-17T09:51:50;98844.97;;;17.24;52.80
54236;BME280;40151;43.606;1.472;2023-03-17T09:56:56;98850.38;;;17.21;52.88
54236;BME280;40151;43.606;1.472;2023-03-17T09:59:34;98861.13;;;17.17;52.67
54236;BME280;40151;43.606;1.472;2023-03-17T10:02:05;98836.44;;;17.18;52.60
54236;BME280;40151;43.606;1.472;2023-03-17T10:04:38;98853.97;;;17.20;52.69
54236;BME280;40151;43.606;1.472;2023-03-17T10:07:06;98836.44;;;17.18;52.89
54236;BME280;40151;43.606;1.472;2023-03-17T10:09:40;98825.81;;;17.20;52.61
54236;BME280;40151;43.606;1.472;2023-03-17T10:15:04;98818.75;;;17.21;52.93
54236;BME280;40151;43.606;1.472;2023-03-17T10:17:37;98819.63;;;17.21;52.87
54236;BME280;40151;43.606;1.472;2023-03-17T10:20:24;98831.66;;;17.25;52.95
54236;BME280;40151;43.606;1.472;2023-03-17T10:22:56;98814.25;;;17.23;52.73
54236;BME280;40151;43.606;1.472;2023-03-17T10:25:25;98813.31;;;17.24;52.82
54236;BME280;40151;43.606;1.472;2023-03-17T10:27:58;98822.19;;;17.23;52.86
54236;BME280;40151;43.606;1.472;2023-03-17T10:30:26;98817.72;;;17.23;52.66
54236;BME280;40151;43.606;1.472;2023-03-17T10:32:55;98820.28;;;17.25;53.05
54236;BME280;40151;43.606;1.472;2023-03-17T10:35:23;98824.69;;;17.24;52.78
54236;BME280;40151;43.606;1.472;2023-03-17T10:37:48;98823.69;;;17.27;52.74
54236;BME280;40151;43.606;1.472;2023-03-17T10:40:23;98800.91;;;17.26;52.92
54236;BME280;40151;43.606;1.472;2023-03-17T10:42:54;98828.97;;;17.27;52.56
54236;BME280;40151;43.606;1.472;2023-03-17T10:45:36;98825.38;;;17.28;52.74
54236;BME280;40151;43.606;1.472;2023-03-17T10:48:06;98826.16;;;17.30;52.80
54236;BME280;40151;43.606;1.472;2023-03-17T10:50:36;98848.19;;;17.29;52.87
54236;BME280;40151;43.606;1.472;2023-03-17T10:53:04;98848.19;;;17.29;52.75
54236;BME280;40151;43.606;1.472;2023-03-17T10:55:46;98849.91;;;17.30;53.01
54236;BME280;40151;43.606;1.472;2023-03-17T11:01:02;98841.03;;;17.31;52.91
54236;BME280;40151;43.606;1.472;2023-03-17T11:03:31;98840.84;;;17.34;52.88
54236;BME280;40151;43.606;1.472;2023-03-17T11:06:00;98820.69;;;17.33;52.81
54236;BME280;40151;43.606;1.472;2023-03-17T11:08:38;98826.75;;;17.35;52.62
54236;BME280;40151;43.606;1.472;2023-03-17T11:11:25;98825.91;;;17.35;52.88
54236;BME280;40151;43.606;1.472;2023-03-17T11:14:12;98824.13;;;17.35;52.67
54236;BME280;40151;43.606;1.472;2023-03-17T11:19:15;98820.63;;;17.35;52.54
54236;BME280;40151;43.606;1.472;2023-03-17T11:22:00;98818.06;;;17.33;52.63
54236;BME280;40151;43.606;1.472;2023-03-17T11:24:33;98826.75;;;17.35;52.63
54236;BME280;40151;43.606;1.472;2023-03-17T11:27:14;98829.41;;;17.35;52.57
54236;BME280;40151;43.606;1.472;2023-03-17T11:29:53;98828.38;;;17.38;52.58
54236;BME280;40151;43.606;1.472;2023-03-17T11:32:31;98830.91;;;17.39;52.60
54236;BME280;40151;43.606;1.472;2023-03-17T11:35:12;98845.81;;;17.40;52.50
54236;BME280;40151;43.606;1.472;2023-03-17T11:38:00;98839.69;;;17.40;52.61
54236;BME280;40151;43.606;1.472;2023-03-17T11:40:34;98834.41;;;17.40;52.82
54236;BME280;40151;43.606;1.472;2023-03-17T11:48:37;98843.25;;;17.39;52.57
54236;BME280;40151;43.606;1.472;2023-03-17T11:56:15;98843.19;;;17.40;52.66
54236;BME280;40151;43.606;1.472;2023-03-17T11:58:52;98840.34;;;17.43;52.55
54236;BME280;40151;43.606;1.472;2023-03-17T12:01:23;98823.59;;;17.44;52.62
54236;BME280;40151;43.606;1.472;2023-03-17T12:06:55;98827.09;;;17.45;52.42
54236;BME280;40151;43.606;1.472;2023-03-17T12:09:25;98851.66;;;17.45;52.40
54236;BME280;40151;43.606;1.472;2023-03-17T12:11:54;98862.22;;;17.45;52.70
54236;BME280;40151;43.606;1.472;2023-03-17T12:14:27;98856.94;;;17.45;52.67
54236;BME280;40151;43.606;1.472;2023-03-17T12:17:30;98847.16;;;17.48;52.66
54236;BME280;40151;43.606;1.472;2023-03-17T12:20:22;98852.44;;;17.48;52.60
54236;BME280;40151;43.606;1.472;2023-03-17T12:26:04;98842.72;;;17.48;52.39
54236;BME280;40151;43.606;1.472;2023-03-17T12:28:37;98840.94;;;17.49;52.54
54236;BME280;40151;43.606;1.472;2023-03-17T12:31:11;98835.69;;;17.49;52.39
54236;BME280;40151;43.606;1.472;2023-03-17T12:36:15;98812.69;;;17.51;52.37
54236;BME280;40151;43.606;1.472;2023-03-17T12:44:15;98816.13;;;17.53;52.37
54236;BME280;40151;43.606;1.472;2023-03-17T12:47:05;98805.56;;;17.53;52.36
54236;BME280;40151;43.606;1.472;2023-03-17T12:54:37;98789.53;;;17.56;52.19
54236;BME280;40151;43.606;1.472;2023-03-17T12:57:13;98787.84;;;17.55;52.41
54236;BME280;40151;43.606;1.472;2023-03-17T12:59:42;98782.56;;;17.55;52.22
54236;BME280;40151;43.606;1.472;2023-03-17T13:04:50;98771.84;;;17.58;52.65
54236;BME280;40151;43.606;1.472;2023-03-17T13:07:23;98771.75;;;17.60;52.41
54236;BME280;40151;43.606;1.472;2023-03-17T13:17:47;98772.41;;;17.63;52.25
54236;BME280;40151;43.606;1.472;2023-03-17T13:20:18;98775.06;;;17.63;52.31
54236;BME280;40151;43.606;1.472;2023-03-17T13:23:00;98770.56;;;17.65;52.53
54236;BME280;40151;43.606;1.472;2023-03-17T13:43:11;98750.94;;;17.69;52.47
54236;BME280;40151;43.606;1.472;2023-03-17T13:45:45;98750.94;;;17.69;52.13
54236;BME280;40151;43.606;1.472;2023-03-17T13:48:31;98749.91;;;17.72;52.29
54236;BME280;40151;43.606;1.472;2023-03-17T13:51:20;98756.94;;;17.73;52.10
54236;BME280;40151;43.606;1.472;2023-03-17T13:53:55;98755.88;;;17.76;52.26
54236;BME280;40151;43.606;1.472;2023-03-17T14:01:17;98746.09;;;17.78;52.13
54236;BME280;40151;43.606;1.472;2023-03-17T14:03:48;98739.88;;;17.79;51.91
54236;BME280;40151;43.606;1.472;2023-03-17T14:06:16;98739.88;;;17.79;52.11
54236;BME280;40151;43.606;1.472;2023-03-17T14:08:54;98742.41;;;17.80;51.97
54236;BME280;40151;43.606;1.472;2023-03-17T14:11:35;98740.63;;;17.81;52.23
54236;BME280;40151;43.606;1.472;2023-03-17T14:16:53;98749.31;;;17.83;52.06
54236;BME280;40151;43.606;1.472;2023-03-17T14:19:29;98751.94;;;17.83;52.28
54236;BME280;40151;43.606;1.472;2023-03-17T14:22:02;98753.66;;;17.84;52.27
54236;BME280;40151;43.606;1.472;2023-03-17T14:24:31;98748.38;;;17.84;52.13
54236;BME280;40151;43.606;1.472;2023-03-17T14:27:04;98754.41;;;17.86;51.96
54236;BME280;40151;43.606;1.472;2023-03-17T14:29:32;98755.34;;;17.85;52.20